sensor_id;sensor_type;location;lat;lon;timestamp;temperature;humidity
21540;DHT22;10931;52.164;5.518;2024-01-27T00:06:57;4.50;91.70
21540;DHT22;10931;52.164;5.518;2024-01-27T00:09:26;5.80;90.40
21540;DHT22;10931;52.164;5.518;2024-01-27T00:50:55;5.60;90.50
21540;DHT22;10931;52.164;5.518;2024-01-27T00:53:24;5.70;90.40
21540;DHT22;10931;52.164;5.518;2024-01-27T01:00:45;5.60;90.40
21540;DHT22;10931;52.164;5.518;2024-01-27T01:32:29;5.70;90.70
21540;DHT22;10931;52.164;5.518;2024-01-27T02:02:07;5.30;90.40
21540;DHT22;10931;52.164;5.518;2024-01-27T02:04:43;5.30;90.50
21540;DHT22;10931;52.164;5.518;2024-01-27T02:27:11;5.30;90.70
21540;DHT22;10931;52.164;5.518;2024-01-27T02:34:54;5.00;90.60
21540;DHT22;10931;52.164;5.518;2024-01-27T02:37:27;5.20;90.50
21540;DHT22;10931;52.164;5.518;2024-01-27T02:40:12;5.30;90.60
21540;DHT22;10931;52.164;5.518;2024-01-27T02:43:14;5.40;90.70
21540;DHT22;10931;52.164;5.518;2024-01-27T02:45:53;5.20;90.80
21540;DHT22;10931;52.164;5.518;2024-01-27T02:48:41;5.00;90.40
21540;DHT22;10931;52.164;5.518;2024-01-27T02:56:50;5.30;90.70
21540;DHT22;10931;52.164;5.518;2024-01-27T02:59:20;5.10;90.50
21540;DHT22;10931;52.164;5.518;2024-01-27T03:01:51;5.00;90.40
21540;DHT22;10931;52.164;5.518;2024-01-27T03:04:30;5.10;90.80
21540;DHT22;10931;52.164;5.518;2024-01-27T03:07:12;5.10;90.50
21540;DHT22;10931;52.164;5.518;2024-01-27T03:10:11;7.00;91.00
21540;DHT22;10931;52.164;5.518;2024-01-27T03:15:33;5.00;90.50
21540;DHT22;10931;52.164;5.518;2024-01-27T03:18:18;5.00;90.80
21540;DHT22;10931;52.164;5.518;2024-01-27T03:24:05;4.90;90.40
21540;DHT22;10931;52.164;5.518;2024-01-27T03:27:20;5.10;90.50
21540;DHT22;10931;52.164;5.518;2024-01-27T03:30:36;5.00;90.80
21540;DHT22;10931;52.164;5.518;2024-01-27T03:36:27;5.00;90.50
21540;DHT22;10931;52.164;5.518;2024-01-27T03:38:59;5.00;90.60
21540;DHT22;10931;52.164;5.518;2024-01-27T03:41:40;5.10;90.80
21540;DHT22;10931;52.164;5.518;2024-01-27T03:44:27;5.00;90.50
21540;DHT22;10931;52.164;5.518;2024-01-27T03:47:02;4.90;90.70
21540;DHT22;10931;52.164;5.518;2024-01-27T03:49:45;4.90;90.80
21540;DHT22;10931;52.164;5.518;2024-01-27T04:04:37;5.10;90.80
21540;DHT22;10931;52.164;5.518;2024-01-27T04:12:14;4.40;90.70
21540;DHT22;10931;52.164;5.518;2024-01-27T04:14:49;5.00;90.80
21540;DHT22;10931;52.164;5.518;2024-01-27T04:17:21;3.90;90.40
21540;DHT22;10931;52.164;5.518;2024-01-27T04:19:52;4.80;90.50
21540;DHT22;10931;52.164;5.518;2024-01-27T04:24:52;4.90;90.80
21540;DHT22;10931;52.164;5.518;2024-01-27T04:27:37;4.70;90.50
21540;DHT22;10931;52.164;5.518;2024-01-27T04:30:06;4.80;90.90
21540;DHT22;10931;52.164;5.518;2024-01-27T04:32:40;4.80;90.90
21540;DHT22;10931;52.164;5.518;2024-01-27T04:35:10;4.60;90.80
21540;DHT22;10931;52.164;5.518;2024-01-27T04:40:10;4.80;90.80
21540;DHT22;10931;52.164;5.518;2024-01-27T04:42:38;4.80;90.80
21540;DHT22;10931;52.164;5.518;2024-01-27T04:45:04;6.10;91.60
21540;DHT22;10931;52.164;5.518;2024-01-27T04:57:25;4.50;90.60
21540;DHT22;10931;52.164;5.518;2024-01-27T05:02:18;4.60;90.80
21540;DHT22;10931;52.164;5.518;2024-01-27T05:19:21;0.50;89.20
21540;DHT22;10931;52.164;5.518;2024-01-27T05:24:15;6.20;91.20
21540;DHT22;10931;52.164;5.518;2024-01-27T05:48:39;4.90;90.90
21540;DHT22;10931;52.164;5.518;2024-01-27T06:32:42;4.50;91.10
21540;DHT22;10931;52.164;5.518;2024-01-27T06:35:12;4.40;90.50
21540;DHT22;10931;52.164;5.518;2024-01-27T06:47:29;4.50;90.50
21540;DHT22;10931;52.164;5.518;2024-01-27T06:57:22;4.50;91.20
21540;DHT22;10931;52.164;5.518;2024-01-27T06:59:49;4.30;90.80
21540;DHT22;10931;52.164;5.518;2024-01-27T07:02:22;6.50;91.30
21540;DHT22;10931;52.164;5.518;2024-01-27T07:07:22;4.50;90.50
21540;DHT22;10931;52.164;5.518;2024-01-27T07:31:49;4.10;90.40
21540;DHT22;10931;52.164;5.518;2024-01-27T07:44:11;4.20;90.50
21540;DHT22;10931;52.164;5.518;2024-01-27T07:46:41;4.30;90.50
21540;DHT22;10931;52.164;5.518;2024-01-27T07:51:34;4.60;91.00
21540;DHT22;10931;52.164;5.518;2024-01-27T07:54:05;4.20;90.60
21540;DHT22;10931;52.164;5.518;2024-01-27T08:06:21;4.30;90.70
21540;DHT22;10931;52.164;5.518;2024-01-27T08:08:47;4.10;91.20
21540;DHT22;10931;52.164;5.518;2024-01-27T08:11:22;4.00;90.40
21540;DHT22;10931;52.164;5.518;2024-01-27T08:21:10;4.40;90.70
21540;DHT22;10931;52.164;5.518;2024-01-27T08:48:11;4.40;90.80
21540;DHT22;10931;52.164;5.518;2024-01-27T08:55:42;4.50;90.80
21540;DHT22;10931;52.164;5.518;2024-01-27T08:58:10;4.20;90.60
21540;DHT22;10931;52.164;5.518;2024-01-27T09:03:05;4.80;90.80
21540;DHT22;10931;52.164;5.518;2024-01-27T09:15:26;5.10;90.90
21540;DHT22;10931;52.164;5.518;2024-01-27T09:17:56;6.00;91.10
21540;DHT22;10931;52.164;5.518;2024-01-27T09:25:24;5.00;90.80
21540;DHT22;10931;52.164;5.518;2024-01-27T09:30:27;5.10;90.80
21540;DHT22;10931;52.164;5.518;2024-01-27T09:35:21;5.00;90.80
21540;DHT22;10931;52.164;5.518;2024-01-27T09:37:50;5.40;90.80
21540;DHT22;10931;52.164;5.518;2024-01-27T09:43:06;5.40;90.80
21540;DHT22;10931;52.164;5.518;2024-01-27T09:45:35;5.40;90.80
21540;DHT22;10931;52.164;5.518;2024-01-27T09:48:03;5.50;90.80
21540;DHT22;10931;52.164;5.518;2024-01-27T09:55:38;5.60;90.80
21540;DHT22;10931;52.164;5.518;2024-01-27T09:58:06;5.90;90.90
21540;DHT22;10931;52.164;5.518;2024-01-27T10:03:25;5.90;90.90
21540;DHT22;10931;52.164;5.518;2024-01-27T10:05:56;6.10;91.00
21540;DHT22;10931;52.164;5.518;2024-01-27T10:08:25;6.10;90.90
21540;DHT22;10931;52.164;5.518;2024-01-27T10:10:57;6.00;90.90
21540;DHT22;10931;52.164;5.518;2024-01-27T10:13:33;6.10;99.10
21540;DHT22;10931;52.164;5.518;2024-01-27T10:16:09;7.50;92.10
21540;DHT22;10931;52.164;5.518;2024-01-27T10:18:42;6.20;99.20
21540;DHT22;10931;52.164;5.518;2024-01-27T10:21:36;6.60;99.10
21540;DHT22;10931;52.164;5.518;2024-01-27T10:24:07;6.60;99.20
21540;DHT22;10931;52.164;5.518;2024-01-27T10:26:36;6.60;99.20
21540;DHT22;10931;52.164;5.518;2024-01-27T10:29:10;6.70;99.10
21540;DHT22;10931;52.164;5.518;2024-01-27T10:32:13;6.80;99.20
21540;DHT22;10931;52.164;5.518;2024-01-27T10:35:05;7.00;99.40
21540;DHT22;10931;52.164;5.518;2024-01-27T10:37:46;7.00;98.80
21540;DHT22;10931;52.164;5.518;2024-01-27T10:40:25;7.00;98.90
21540;DHT22;10931;52.164;5.518;2024-01-27T10:43:15;7.20;99.30
21540;DHT22;10931;52.164;5.518;2024-01-27T10:45:47;7.50;99.40
21540;DHT22;10931;52.164;5.518;2024-01-27T10:48:23;7.60;99.50
21540;DHT22;10931;52.164;5.518;2024-01-27T10:50:56;7.20;99.40
21540;DHT22;10931;52.164;5.518;2024-01-27T10:53:35;7.30;99.00
21540;DHT22;10931;52.164;5.518;2024-01-27T10:59:07;7.80;99.30
21540;DHT22;10931;52.164;5.518;2024-01-27T11:02:09;7.80;99.20
21540;DHT22;10931;52.164;5.518;2024-01-27T11:04:45;7.70;98.90
21540;DHT22;10931;52.164;5.518;2024-01-27T11:07:53;7.70;99.40
21540;DHT22;10931;52.164;5.518;2024-01-27T11:10:24;7.80;99.20
21540;DHT22;10931;52.164;5.518;2024-01-27T11:13:24;8.30;92.20
21540;DHT22;10931;52.164;5.518;2024-01-27T11:16:02;8.10;99.30
21540;DHT22;10931;52.164;5.518;2024-01-27T11:18:45;8.40;91.60
21540;DHT22;10931;52.164;5.518;2024-01-27T11:55:27;13.00;93.00
21540;DHT22;10931;52.164;5.518;2024-01-27T11:58:18;9.40;91.70
21540;DHT22;10931;52.164;5.518;2024-01-27T12:01:18;10.50;94.00
21540;DHT22;10931;52.164;5.518;2024-01-27T12:04:31;10.40;91.70
21540;DHT22;10931;52.164;5.518;2024-01-27T12:07:26;10.70;94.10
21540;DHT22;10931;52.164;5.518;2024-01-27T12:10:36;10.90;92.50
21540;DHT22;10931;52.164;5.518;2024-01-27T12:14:13;9.70;91.30
21540;DHT22;10931;52.164;5.518;2024-01-27T12:16:56;14.20;93.40
21540;DHT22;10931;52.164;5.518;2024-01-27T12:20:05;9.80;92.10
21540;DHT22;10931;52.164;5.518;2024-01-27T12:23:44;14.50;93.20
21540;DHT22;10931;52.164;5.518;2024-01-27T12:26:44;11.50;91.60
21540;DHT22;10931;52.164;5.518;2024-01-27T12:29:21;12.10;91.60
21540;DHT22;10931;52.164;5.518;2024-01-27T12:32:13;12.00;93.40
21540;DHT22;10931;52.164;5.518;2024-01-27T12:35:07;13.80;93.40
21540;DHT22;10931;52.164;5.518;2024-01-27T12:41:28;14.00;91.80
21540;DHT22;10931;52.164;5.518;2024-01-27T14:20:15;12.70;90.40
21540;DHT22;10931;52.164;5.518;2024-01-27T14:27:09;10.50;89.80
21540;DHT22;10931;52.164;5.518;2024-01-27T14:32:54;12.80;91.40
21540;DHT22;10931;52.164;5.518;2024-01-27T14:38:56;12.30;97.50
21540;DHT22;10931;52.164;5.518;2024-01-27T14:48:15;12.50;91.60
21540;DHT22;10931;52.164;5.518;2024-01-27T14:54:42;12.30;92.10
21540;DHT22;10931;52.164;5.518;2024-01-27T14:57:36;13.60;92.30
21540;DHT22;10931;52.164;5.518;2024-01-27T15:04:30;11.80;91.60
21540;DHT22;10931;52.164;5.518;2024-01-27T15:07:13;11.60;97.40
21540;DHT22;10931;52.164;5.518;2024-01-27T15:13:18;12.10;90.50
21540;DHT22;10931;52.164;5.518;2024-01-27T15:19:38;13.70;91.00
21540;DHT22;10931;52.164;5.518;2024-01-27T15:22:35;10.10;91.40
21540;DHT22;10931;52.164;5.518;2024-01-27T15:25:56;12.10;97.90
21540;DHT22;10931;52.164;5.518;2024-01-27T15:28:43;11.50;91.90
21540;DHT22;10931;52.164;5.518;2024-01-27T15:31:17;10.00;90.00
21540;DHT22;10931;52.164;5.518;2024-01-27T15:34:00;10.40;91.50
21540;DHT22;10931;52.164;5.518;2024-01-27T15:36:48;14.20;92.50
21540;DHT22;10931;52.164;5.518;2024-01-27T15:39:29;9.10;90.60
21540;DHT22;10931;52.164;5.518;2024-01-27T15:45:43;10.70;90.20
21540;DHT22;10931;52.164;5.518;2024-01-27T15:56:49;12.10;91.80
21540;DHT22;10931;52.164;5.518;2024-01-27T16:02:11;10.20;97.80
21540;DHT22;10931;52.164;5.518;2024-01-27T16:05:11;10.50;97.70
21540;DHT22;10931;52.164;5.518;2024-01-27T16:07:55;10.50;92.40
21540;DHT22;10931;52.164;5.518;2024-01-27T16:10:43;9.80;90.10
21540;DHT22;10931;52.164;5.518;2024-01-27T16:16:52;10.70;91.80
21540;DHT22;10931;52.164;5.518;2024-01-27T16:20:02;10.80;90.50
21540;DHT22;10931;52.164;5.518;2024-01-27T16:26:16;10.70;90.50
21540;DHT22;10931;52.164;5.518;2024-01-27T16:28:55;12.10;92.10
21540;DHT22;10931;52.164;5.518;2024-01-27T16:32:05;13.00;92.10
21540;DHT22;10931;52.164;5.518;2024-01-27T16:34:41;10.30;98.10
21540;DHT22;10931;52.164;5.518;2024-01-27T16:47:40;10.40;91.70
21540;DHT22;10931;52.164;5.518;2024-01-27T16:50:14;9.00;91.40
21540;DHT22;10931;52.164;5.518;2024-01-27T16:53:17;9.10;91.30
21540;DHT22;10931;52.164;5.518;2024-01-27T16:56:27;10.50;92.10
21540;DHT22;10931;52.164;5.518;2024-01-27T16:59:24;9.80;98.20
21540;DHT22;10931;52.164;5.518;2024-01-27T17:02:42;11.10;90.70
21540;DHT22;10931;52.164;5.518;2024-01-27T17:05:26;9.40;98.00
21540;DHT22;10931;52.164;5.518;2024-01-27T17:08:02;6.60;90.60
21540;DHT22;10931;52.164;5.518;2024-01-27T17:10:51;9.80;90.40
21540;DHT22;10931;52.164;5.518;2024-01-27T17:16:41;9.90;91.50
21540;DHT22;10931;52.164;5.518;2024-01-27T17:19:30;9.10;98.00
21540;DHT22;10931;52.164;5.518;2024-01-27T17:21:59;10.30;91.70
21540;DHT22;10931;52.164;5.518;2024-01-27T17:24:45;8.80;98.10
21540;DHT22;10931;52.164;5.518;2024-01-27T17:30:27;9.30;91.60
21540;DHT22;10931;52.164;5.518;2024-01-27T17:33:20;7.00;89.40
21540;DHT22;10931;52.164;5.518;2024-01-27T17:36:02;9.60;98.40
21540;DHT22;10931;52.164;5.518;2024-01-27T17:38:42;9.30;98.20
21540;DHT22;10931;52.164;5.518;2024-01-27T17:44:19;9.10;98.20
21540;DHT22;10931;52.164;5.518;2024-01-27T17:46:48;8.90;98.40
21540;DHT22;10931;52.164;5.518;2024-01-27T17:49:21;10.80;90.90
21540;DHT22;10931;52.164;5.518;2024-01-27T17:55:03;8.80;98.30
21540;DHT22;10931;52.164;5.518;2024-01-27T17:58:01;8.90;98.40
21540;DHT22;10931;52.164;5.518;2024-01-27T18:00:48;10.60;98.40
21540;DHT22;10931;52.164;5.518;2024-01-27T18:03:41;11.20;92.00
21540;DHT22;10931;52.164;5.518;2024-01-27T18:06:23;8.90;98.30
21540;DHT22;10931;52.164;5.518;2024-01-27T18:08:59;8.70;98.20
21540;DHT22;10931;52.164;5.518;2024-01-27T18:14:45;8.40;98.30
21540;DHT22;10931;52.164;5.518;2024-01-27T18:17:59;8.50;98.40
21540;DHT22;10931;52.164;5.518;2024-01-27T18:20:31;8.40;98.40
21540;DHT22;10931;52.164;5.518;2024-01-27T18:22:59;8.40;98.30
21540;DHT22;10931;52.164;5.518;2024-01-27T18:28:38;8.50;98.50
21540;DHT22;10931;52.164;5.518;2024-01-27T18:31:09;8.60;98.20
21540;DHT22;10931;52.164;5.518;2024-01-27T18:34:04;8.20;98.30
21540;DHT22;10931;52.164;5.518;2024-01-27T18:36:50;10.70;91.30
21540;DHT22;10931;52.164;5.518;2024-01-27T18:39:53;7.90;98.10
21540;DHT22;10931;52.164;5.518;2024-01-27T18:42:42;7.90;98.40
21540;DHT22;10931;52.164;5.518;2024-01-27T18:48:11;10.80;92.10
21540;DHT22;10931;52.164;5.518;2024-01-27T18:50:52;8.20;98.20
21540;DHT22;10931;52.164;5.518;2024-01-27T18:53:20;8.00;97.80
21540;DHT22;10931;52.164;5.518;2024-01-27T18:56:03;8.30;98.50
21540;DHT22;10931;52.164;5.518;2024-01-27T18:58:45;7.80;98.30
21540;DHT22;10931;52.164;5.518;2024-01-27T19:01:22;8.20;98.40
21540;DHT22;10931;52.164;5.518;2024-01-27T19:07:35;7.80;98.40
21540;DHT22;10931;52.164;5.518;2024-01-27T19:10:35;7.80;98.40
21540;DHT22;10931;52.164;5.518;2024-01-27T19:13:34;7.70;97.80
21540;DHT22;10931;52.164;5.518;2024-01-27T19:16:34;7.70;97.90
21540;DHT22;10931;52.164;5.518;2024-01-27T19:19:08;7.50;97.90
21540;DHT22;10931;52.164;5.518;2024-01-27T19:21:52;7.60;98.40
21540;DHT22;10931;52.164;5.518;2024-01-27T19:24:31;7.80;98.70
21540;DHT22;10931;52.164;5.518;2024-01-27T19:27:20;7.80;98.70
21540;DHT22;10931;52.164;5.518;2024-01-27T19:30:05;7.40;98.20
21540;DHT22;10931;52.164;5.518;2024-01-27T19:32:40;7.50;98.60
21540;DHT22;10931;52.164;5.518;2024-01-27T19:35:20;7.90;98.80
21540;DHT22;10931;52.164;5.518;2024-01-27T19:37:58;7.50;98.10
21540;DHT22;10931;52.164;5.518;2024-01-27T19:41:02;7.40;98.40
21540;DHT22;10931;52.164;5.518;2024-01-27T19:44:17;7.40;98.40
21540;DHT22;10931;52.164;5.518;2024-01-27T19:46:45;7.30;98.00
21540;DHT22;10931;52.164;5.518;2024-01-27T19:49:27;7.00;98.20
21540;DHT22;10931;52.164;5.518;2024-01-27T19:52:03;7.00;98.10
21540;DHT22;10931;52.164;5.518;2024-01-27T19:54:51;7.30;98.60
21540;DHT22;10931;52.164;5.518;2024-01-27T19:57:20;7.20;98.00
21540;DHT22;10931;52.164;5.518;2024-01-27T19:59:54;7.20;98.60
21540;DHT22;10931;52.164;5.518;2024-01-27T20:02:43;10.30;99.00
21540;DHT22;10931;52.164;5.518;2024-01-27T20:05:22;7.20;98.40
21540;DHT22;10931;52.164;5.518;2024-01-27T20:08:13;7.20;98.90
21540;DHT22;10931;52.164;5.518;2024-01-27T20:10:50;7.20;98.20
21540;DHT22;10931;52.164;5.518;2024-01-27T20:13:36;7.10;98.20
21540;DHT22;10931;52.164;5.518;2024-01-27T20:16:07;7.20;98.60
21540;DHT22;10931;52.164;5.518;2024-01-27T20:18:42;7.40;98.90
21540;DHT22;10931;52.164;5.518;2024-01-27T20:21:22;7.00;98.10
21540;DHT22;10931;52.164;5.518;2024-01-27T20:24:08;6.80;98.10
21540;DHT22;10931;52.164;5.518;2024-01-27T20:26:57;6.80;98.30
21540;DHT22;10931;52.164;5.518;2024-01-27T20:29:28;6.90;98.30
21540;DHT22;10931;52.164;5.518;2024-01-27T20:32:13;6.90;98.30
21540;DHT22;10931;52.164;5.518;2024-01-27T20:34:38;6.20;98.00
21540;DHT22;10931;52.164;5.518;2024-01-27T20:37:22;6.90;98.40
21540;DHT22;10931;52.164;5.518;2024-01-27T20:39:47;6.70;98.00
21540;DHT22;10931;52.164;5.518;2024-01-27T20:42:37;6.70;98.30
21540;DHT22;10931;52.164;5.518;2024-01-27T20:45:23;7.00;98.40
21540;DHT22;10931;52.164;5.518;2024-01-27T20:48:03;6.70;98.40
21540;DHT22;10931;52.164;5.518;2024-01-27T20:50:32;6.80;98.40
21540;DHT22;10931;52.164;5.518;2024-01-27T20:53:12;6.50;98.20
21540;DHT22;10931;52.164;5.518;2024-01-27T20:55:47;6.80;98.60
21540;DHT22;10931;52.164;5.518;2024-01-27T21:00:50;6.40;98.00
21540;DHT22;10931;52.164;5.518;2024-01-27T21:03:29;6.60;98.30
21540;DHT22;10931;52.164;5.518;2024-01-27T21:08:50;6.60;98.30
21540;DHT22;10931;52.164;5.518;2024-01-27T21:11:24;6.50;98.30
21540;DHT22;10931;52.164;5.518;2024-01-27T21:16:30;6.50;90.00
21540;DHT22;10931;52.164;5.518;2024-01-27T21:19:03;6.40;96.90
21540;DHT22;10931;52.164;5.518;2024-01-27T21:21:36;6.30;98.20
21540;DHT22;10931;52.164;5.518;2024-01-27T21:24:05;6.30;90.00
21540;DHT22;10931;52.164;5.518;2024-01-27T21:26:49;6.10;89.90
21540;DHT22;10931;52.164;5.518;2024-01-27T21:31:40;6.40;98.30
21540;DHT22;10931;52.164;5.518;2024-01-27T21:41:30;6.30;98.40
21540;DHT22;10931;52.164;5.518;2024-01-27T21:44:02;6.60;92.40
21540;DHT22;10931;52.164;5.518;2024-01-27T21:48:55;6.30;98.50
21540;DHT22;10931;52.164;5.518;2024-01-27T21:51:26;6.30;90.00
21540;DHT22;10931;52.164;5.518;2024-01-27T21:53:52;6.40;92.60
21540;DHT22;10931;52.164;5.518;2024-01-27T21:56:23;6.20;92.40
21540;DHT22;10931;52.164;5.518;2024-01-27T22:01:23;5.90;98.30
21540;DHT22;10931;52.164;5.518;2024-01-27T22:04:00;6.00;90.00
21540;DHT22;10931;52.164;5.518;2024-01-27T22:06:28;5.60;90.00
21540;DHT22;10931;52.164;5.518;2024-01-27T22:11:55;5.80;98.30
21540;DHT22;10931;52.164;5.518;2024-01-27T22:17:38;6.20;95.20
21540;DHT22;10931;52.164;5.518;2024-01-27T22:20:11;5.70;98.50
21540;DHT22;10931;52.164;5.518;2024-01-27T22:22:54;5.70;97.20
21540;DHT22;10931;52.164;5.518;2024-01-27T22:25:30;8.90;90.90
21540;DHT22;10931;52.164;5.518;2024-01-27T22:27:59;7.90;99.30
21540;DHT22;10931;52.164;5.518;2024-01-27T22:32:53;7.50;91.50
21540;DHT22;10931;52.164;5.518;2024-01-27T22:46:19;5.80;90.40
21540;DHT22;10931;52.164;5.518;2024-01-27T22:53:40;5.60;90.40
21540;DHT22;10931;52.164;5.518;2024-01-27T23:00:59;8.30;91.20
21540;DHT22;10931;52.164;5.518;2024-01-27T23:20:35;5.40;90.10
21540;DHT22;10931;52.164;5.518;2024-01-27T23:35:19;5.20;90.00
21540;DHT22;10931;52.164;5.518;2024-01-27T23:42:42;5.20;98.70
21540;DHT22;10931;52.164;5.518;2024-01-27T23:55:00;8.00;91.80
21540;DHT22;10931;52.164;5.518;2024-01-27T23:59:55;5.20;90.10
